Millhaven, Canada
Current Conditions -  °F | °C
As of 8:00 PM on Friday 24 Oct 2014 (Local Time) from CYGK Reporting Station
Few Clouds Few Clouds  
Wind Chill: 50°   Ceiling: Unl
Heat Index: 50°   Visibility: 15mi
Dew Point: 45°   Wind: 8mph
Humidity: 82%   Direction: 250°WSW
Pressure: 29.87"   Gusts: NA
Location:  44.2°N, 76.75°W
Report Text: CYGK 250000Z 25007KT 15SM FEW250 10/07 A2987 RMK CI1 SLP117
Loading
Personal Weather Stations






























Interactive Weather Map New forecast layout! Learn more

10-Day Weather Forecast

Advertisements
Track Severe Weather on mobile